Aviation Digital Data Service (ADDS)

Output produced by METARs form (2335 UTC 23 May 2022)
found at http://www.aviationweather.gov/metar/data/
 
ZBHH 232300Z 06001MPS CAVOK 15/06 Q1014 NOSIG
TAF ZBHH 232102Z 2400/2424 04004MPS 9999 FEW040 TX31/2407Z TN13/2422Z 
     TEMPO 2403/2407 FEW040CB FEW040 
     BECMG 2407/2408 33008G15MPS
       
ZGGG 232330Z 05002MPS 9000 FEW015 OVC030 25/24 Q1009 NOSIG
TAF ZGGG 232103Z 2400/2424 08003MPS 8000 FEW011 OVC026 TX28/2407Z TN24/2422Z 
     TEMPO 2406/2412 3500 SHRA SCT011 FEW020CB BKN026
       
ZGSZ 232300Z 13003MPS 9999 FEW020 SCT050 26/22 Q1008 NOSIG
TAF ZGSZ 232106Z 2400/2424 11004MPS 6000 BKN040 TX29/2406Z TN25/2422Z 
     TEMPO 2406/2412 SHRA SCT015 FEW020CB BKN033 
     TEMPO 2420/2424 SHRA FEW015CB BKN033
       
ZBTJ 232330Z 19002MPS 8000 NSC 26/14 Q1009 NOSIG
TAF ZBTJ 232113Z 2400/2424 22004MPS CAVOK TX34/2407Z TN18/2421Z 
     TEMPO 2414/2418 -TSRA FEW040CB BKN040 
     BECMG 2419/2420 03006MPS
       
ZBAA 232330Z VRB01MPS CAVOK 23/15 Q1009 NOSIG
TAF ZBAA 232110Z 2400/2424 18004MPS CAVOK TX35/2407Z TN19/2421Z 
     TEMPO 2409/2414 -TSRA FEW033CB BKN040 
     BECMG 2415/2416 36006MPS
       
ZSFZ 232300Z VRB01MPS 4000 -RA BR FEW006 BKN009 OVC033 19/19 Q1012 BECMG TL0030 BKN011
TAF ZSFZ 232110Z 2400/2424 03004MPS 3000 -RA BR BKN009 TX21/2406Z TN18/2421Z 
     TEMPO 2402/2408 2200 SHRA 
     BECMG 2411/2412 BKN015
       
ZYCC 232300Z 22004MPS CAVOK 23/12 Q1006 NOSIG
TAF ZYCC 232108Z 2400/2424 26007G14MPS 6000 SCT030 TX28/2406Z TN10/2421Z 
     TEMPO 2404/2410 1400 TSRA FEW020CB BKN030 
     BECMG 2407/2408 03006G12MPS
       
ZWWW 232330Z 25002MPS 230V290 CAVOK 21/08 Q1012 NOSIG
TAF ZWWW 232105Z 2400/2424 18004MPS CAVOK TX32/2409Z TN20/2423Z 
     BECMG 2402/2403 36004MPS 
     BECMG 2413/2414 18004MPS
       
ZSAM 232300Z 07002MPS 7000 FEW013 OVC026 22/19 Q1011 NOSIG
TAF ZSAM 232106Z 2400/2424 08004MPS 6000 SCT010 BKN040 TX27/2406Z TN22/2421Z 
     TEMPO 2404/2410 SHRA SCT008 FEW023CB OVC030
       
ZSSS 232330Z 12004MPS 6000 -RA BKN007 19/18 Q1014 NOSIG
TAF ZSSS 232104Z 2400/2424 14004MPS 6000 BKN015 TX23/2406Z TN19/2421Z
       
ZGHA 232300Z VRB01MPS 4000 BR NSC 21/20 Q1011 NOSIG
TAF ZGHA 232101Z 2400/2424 18003MPS 4000 BR SCT050 TX27/2407Z TN21/2422Z
       
ZUCK 232300Z 01003MPS CAVOK 23/19 Q1010 NOSIG
TAF ZUCK 232104Z 2400/2424 16003MPS 6000 SCT040 TX31/2408Z TN19/2421Z
       
ZWSH 232300Z 25006MPS 9999 BKN040 14/08 Q1011 NOSIG
TAF ZWSH 232114Z 2400/2424 30006MPS 9999 FEW033CB BKN040 TX25/2409Z TN12/2400Z
       
ZGKL 232300Z 00000MPS 1500 -RA BR SCT006 BKN023 OVC033 20/19 Q1010 NOSIG
TAF ZGKL 232102Z 2400/2424 05003MPS 4000 -RA BR FEW011 BKN023 OVC036 TX21/2407Z
TN19/2422Z 
     TEMPO 2400/2406 2500 SHRA BR FEW010 BKN020 FEW033CB BKN033
       
ZSNB 232300Z VRB01MPS 2000 BR SCT006 BKN016 18/18 Q1013 BECMG TL0050 3000
TAF ZSNB 232120Z 2400/2424 11004MPS 3500 BR FEW007 BKN020 TX22/2406Z TN17/2421Z
       
ZSQD 232300Z 16006MPS CAVOK 22/17 Q1012 NOSIG
TAF ZSQD 232103Z 2400/2424 17005MPS 6000 NSC TX30/2406Z TN18/2421Z
       
ZSNJ 232300Z 08004MPS 9999 SCT016 OVC033 20/17 Q1012 NOSIG
TAF ZSNJ 232103Z 2400/2424 13004MPS 6000 FEW033 TX28/2406Z TN18/2421Z
       
ZSOF 232300Z 11003MPS CAVOK 21/17 Q1012 NOSIG
TAF ZSOF 232101Z 2400/2424 12003MPS 5000 HZ NSC TX31/2406Z TN18/2421Z
       
ZJHK 232300Z 10002MPS 9999 SCT008 27/26 Q1006 BECMG TL2400 BKN008
TAF ZJHK 232115Z 2400/2424 12004MPS 9999 SCT020 TX31/2406Z TN25/2421Z 
     BECMG 2402/2403 SCT020 FEW026CB 
     TEMPO 2404/2410 TSRA 
     BECMG 2411/2412 SCT010
       
ZJSY 232300Z 09003MPS 9999 FEW060 27/26 Q1006 NOSIG
TAF ZJSY 232101Z 2400/2424 09004MPS 9999 FEW020 SCT050 TX32/2406Z TN28/2421Z 
     TEMPO 2405/2411 FEW018 FEW025CB BKN040
       
ZSPD 232330Z 13005MPS 3500 -RA BR BKN005 OVC033 19/18 Q1014 NOSIG
TAF ZSPD 232104Z 2400/2424 14004MPS 6000 BKN015 TX22/2406Z TN18/2421Z
       
ZUUU 232300Z VRB01MPS 4500 BR NSC 20/18 Q1011 NOSIG
TAF ZUUU 232108Z 2400/2424 20003MPS 6000 SCT040 TX26/2407Z TN18/2421Z
       
ZYHB 232300Z 03009MPS 9999 FEW040 FEW040TCU 17/11 Q1006 NOSIG
TAF ZYHB 232111Z 2400/2424 03004MPS 6000 SCT030 TX23/2406Z TN12/2421Z 
     TEMPO 2400/2406 VRB08G15MPS TSRA SCT020CB OVC023
       
ZYTX 232330Z 20005MPS CAVOK 25/12 Q1009 NOSIG
TAF ZYTX 232104Z 2400/2424 22008G13MPS 6000 BKN040 TX32/2406Z TN15/2423Z 
     BECMG 2414/2415 -TSRA SCT026CB BKN030 
     BECMG 2415/2416 33006MPS 
     TEMPO 2418/2424 2000 TSRA
       
ZHHH 232300Z 11003MPS 6000 NSC 23/19 Q1011 NOSIG
TAF ZHHH 232105Z 2400/2424 12003MPS 6000 NSC TX30/2407Z TN19/2421Z
       
ZPPP 232300Z 01002MPS 5000 BR SCT004 BKN016 OVC033 15/15 Q1019 NOSIG
TAF ZPPP 232109Z 2400/2424 04005MPS 6000 SCT020 BKN036 TX22/2408Z TN14/2423Z 
     BECMG 2402/2403 22004MPS
       
ZBYN 232330Z VRB01MPS CAVOK 18/11 Q1014 NOSIG
TAF ZBYN 232101Z 2400/2424 06004MPS 5000 HZ NSC TX31/2407Z TN14/2421Z
       
ZGNN 232300Z 04002MPS 7000 -RA SCT004 OVC030 22/22 Q1008 RESHRA NOSIG
TAF ZGNN 232109Z 2400/2424 03003MPS 5000 BR FEW007 OVC030 TX26/2407Z TN22/2422Z 
     TEMPO 2400/2406 TSRA FEW007 FEW026CB BKN030
       
ZLXY 232300Z VRB01MPS CAVOK 20/13 Q1010 NOSIG
TAF ZLXY 232102Z 2400/2424 06003MPS 5000 HZ NSC TX33/2408Z TN20/2422Z
       
ZSHC 232330Z 08002MPS 050V120 9999 BKN030 20/17 Q1013 NOSIG
TAF ZSHC 232105Z 2400/2424 10003MPS 3000 BR BKN020 TX25/2406Z TN18/2421Z
       
ZHCC 232300Z 20002MPS 160V240 CAVOK 24/16 Q1011 NOSIG
TAF ZHCC 232107Z 2400/2424 18003MPS 5000 HZ NSC TX33/2407Z TN22/2422Z
       
TAF ZSJN 232101Z 2400/2424 23003MPS 3500 HZ NSC TX31/2406Z TN20/2421Z
       
ZBSJ 232300Z 29003MPS CAVOK 21/14 Q1009 NOSIG
TAF ZBSJ 232122Z 2400/2424 18004MPS 6000 NSC TX31/2407Z TN18/2400Z
       
ZLLL 232300Z 32001MPS CAVOK 14/06 Q1017 NOSIG
TAF ZLLL 232113Z 2400/2424 12004MPS 6000 NSC TX27/2409Z TN13/2422Z 
     TEMPO 2409/2413 12009MPS
       
ZYTL 232330Z 13003MPS CAVOK 22/13 Q1011 NOSIG
TAF ZYTL 232107Z 2400/2424 21004MPS 5000 BR FEW033 TX28/2406Z TN15/2422Z 
     BECMG 2417/2418 32005G11MPS 
     TEMPO 2418/2424 2000 -TSRA BR SCT006 BKN010 OVC030 FEW033CB